sensor_id;sensor_type;location;lat;lon;timestamp;pressure;altitude;pressure_sealevel;temperature;humidity
56198;BME280;42700;42.524;12.052;2023-05-14T00:00:23;96182.25;;;15.79;100.00
56198;BME280;42700;42.524;12.052;2023-05-14T00:02:49;96316.41;;;15.83;100.00
56198;BME280;42700;42.524;12.052;2023-05-14T00:05:14;96159.22;;;15.78;100.00
56198;BME280;42700;42.524;12.052;2023-05-14T00:07:40;95985.69;;;15.70;100.00
56198;BME280;42700;42.524;12.052;2023-05-14T00:10:05;96226.38;;;15.77;100.00
56198;BME280;42700;42.524;12.052;2023-05-14T00:12:31;96212.41;;;15.75;100.00
56198;BME280;42700;42.524;12.052;2023-05-14T00:14:56;96472.44;;;15.83;100.00
56198;BME280;42700;42.524;12.052;2023-05-14T00:17:22;96034.34;;;15.67;100.00
56198;BME280;42700;42.524;12.052;2023-05-14T00:19:47;96731.72;;;15.92;100.00
56198;BME280;42700;42.524;12.052;2023-05-14T00:22:13;96661.78;;;15.88;100.00
56198;BME280;42700;42.524;12.052;2023-05-14T00:24:38;96166.84;;;15.69;100.00
56198;BME280;42700;42.524;12.052;2023-05-14T00:27:04;96246.63;;;15.73;100.00
56198;BME280;42700;42.524;12.052;2023-05-14T00:29:30;96473.19;;;15.79;100.00
56198;BME280;42700;42.524;12.052;2023-05-14T00:31:56;96422.81;;;15.76;100.00
56198;BME280;42700;42.524;12.052;2023-05-14T00:34:21;96506.34;;;15.78;100.00
56198;BME280;42700;42.524;12.052;2023-05-14T00:36:47;96309.69;;;15.68;100.00
56198;BME280;42700;42.524;12.052;2023-05-14T00:39:12;96740.09;;;15.83;100.00
56198;BME280;42700;42.524;12.052;2023-05-14T00:41:38;96638.06;;;15.80;100.00
56198;BME280;42700;42.524;12.052;2023-05-14T00:44:03;96578.84;;;15.76;100.00
56198;BME280;42700;42.524;12.052;2023-05-14T00:46:29;96210.06;;;15.61;100.00
56198;BME280;42700;42.524;12.052;2023-05-14T00:48:55;96574.72;;;15.74;100.00
56198;BME280;42700;42.524;12.052;2023-05-14T00:51:20;96755.03;;;15.79;100.00
56198;BME280;42700;42.524;12.052;2023-05-14T00:53:46;96773.97;;;15.78;100.00
56198;BME280;42700;42.524;12.052;2023-05-14T00:56:12;96803.19;;;15.79;100.00
56198;BME280;42700;42.524;12.052;2023-05-14T00:58:38;97306.69;;;15.96;100.00
56198;BME280;42700;42.524;12.052;2023-05-14T01:01:03;97409.66;;;16.00;100.00
56198;BME280;42700;42.524;12.052;2023-05-14T01:03:32;97381.25;;;15.99;100.00
56198;BME280;42700;42.524;12.052;2023-05-14T01:11:12;97221.44;;;15.93;100.00
56198;BME280;42700;42.524;12.052;2023-05-14T01:13:48;97005.72;;;15.85;100.00
56198;BME280;42700;42.524;12.052;2023-05-14T01:16:18;97265.94;;;15.94;100.00
56198;BME280;42700;42.524;12.052;2023-05-14T01:18:45;97328.13;;;15.96;100.00
56198;BME280;42700;42.524;12.052;2023-05-14T01:24:09;97424.91;;;16.00;100.00
56198;BME280;42700;42.524;12.052;2023-05-14T01:26:34;97578.56;;;16.05;100.00
56198;BME280;42700;42.524;12.052;2023-05-14T01:29:10;97560.41;;;16.08;100.00
56198;BME280;42700;42.524;12.052;2023-05-14T01:31:37;97380.22;;;16.00;100.00
56198;BME280;42700;42.524;12.052;2023-05-14T01:34:04;97356.13;;;16.00;100.00
56198;BME280;42700;42.524;12.052;2023-05-14T01:36:31;97231.72;;;15.96;100.00
56198;BME280;42700;42.524;12.052;2023-05-14T01:38:58;96797.38;;;15.82;100.00
56198;BME280;42700;42.524;12.052;2023-05-14T01:41:25;97237.06;;;15.96;100.00
56198;BME280;42700;42.524;12.052;2023-05-14T01:43:51;96999.69;;;15.90;100.00
56198;BME280;42700;42.524;12.052;2023-05-14T01:46:17;96925.78;;;15.89;100.00
56198;BME280;42700;42.524;12.052;2023-05-14T01:48:43;97071.50;;;15.93;100.00
56198;BME280;42700;42.524;12.052;2023-05-14T01:51:09;96759.91;;;15.82;100.00
56198;BME280;42700;42.524;12.052;2023-05-14T01:53:35;96987.94;;;15.91;100.00
56198;BME280;42700;42.524;12.052;2023-05-14T01:56:00;96853.94;;;15.86;100.00
56198;BME280;42700;42.524;12.052;2023-05-14T01:58:26;96887.69;;;15.87;100.00
56198;BME280;42700;42.524;12.052;2023-05-14T02:00:51;96893.88;;;15.88;100.00
56198;BME280;42700;42.524;12.052;2023-05-14T02:03:16;96771.44;;;15.83;100.00
56198;BME280;42700;42.524;12.052;2023-05-14T02:05:42;96703.94;;;15.81;100.00
56198;BME280;42700;42.524;12.052;2023-05-14T02:08:07;96367.53;;;15.69;100.00
56198;BME280;42700;42.524;12.052;2023-05-14T02:10:33;96012.81;;;15.57;100.00
56198;BME280;42700;42.524;12.052;2023-05-14T02:12:58;96344.50;;;15.68;100.00
56198;BME280;42700;42.524;12.052;2023-05-14T02:15:24;96414.06;;;15.68;100.00
56198;BME280;42700;42.524;12.052;2023-05-14T02:17:49;96544.25;;;15.75;100.00
56198;BME280;42700;42.524;12.052;2023-05-14T02:20:15;96691.81;;;15.78;100.00
56198;BME280;42700;42.524;12.052;2023-05-14T02:22:40;96468.19;;;15.71;100.00
56198;BME280;42700;42.524;12.052;2023-05-14T02:25:10;96269.50;;;15.63;100.00
56198;BME280;42700;42.524;12.052;2023-05-14T02:27:36;96325.44;;;15.65;100.00
56198;BME280;42700;42.524;12.052;2023-05-14T02:30:01;96188.09;;;15.59;100.00
56198;BME280;42700;42.524;12.052;2023-05-14T02:32:27;96090.66;;;15.55;100.00
56198;BME280;42700;42.524;12.052;2023-05-14T02:34:52;96040.31;;;15.52;100.00
56198;BME280;42700;42.524;12.052;2023-05-14T02:37:18;96286.03;;;15.60;100.00
56198;BME280;42700;42.524;12.052;2023-05-14T02:39:43;96406.75;;;15.64;100.00
56198;BME280;42700;42.524;12.052;2023-05-14T02:42:09;96474.47;;;15.64;100.00
56198;BME280;42700;42.524;12.052;2023-05-14T02:44:34;96520.53;;;15.66;100.00
56198;BME280;42700;42.524;12.052;2023-05-14T02:47:00;96728.91;;;15.75;100.00
56198;BME280;42700;42.524;12.052;2023-05-14T02:49:25;96524.25;;;15.65;100.00
56198;BME280;42700;42.524;12.052;2023-05-14T02:51:51;96792.16;;;15.76;100.00
56198;BME280;42700;42.524;12.052;2023-05-14T02:54:18;96672.38;;;15.71;100.00
56198;BME280;42700;42.524;12.052;2023-05-14T02:56:43;96620.13;;;15.68;100.00
56198;BME280;42700;42.524;12.052;2023-05-14T02:59:09;96360.94;;;15.60;100.00
56198;BME280;42700;42.524;12.052;2023-05-14T03:01:34;96831.22;;;15.77;100.00
56198;BME280;42700;42.524;12.052;2023-05-14T03:04:00;96853.47;;;15.77;100.00
56198;BME280;42700;42.524;12.052;2023-05-14T03:06:25;96793.16;;;15.75;100.00
56198;BME280;42700;42.524;12.052;2023-05-14T03:08:51;96900.59;;;15.78;100.00
56198;BME280;42700;42.524;12.052;2023-05-14T03:11:16;96649.31;;;15.70;100.00
56198;BME280;42700;42.524;12.052;2023-05-14T03:13:42;96648.50;;;15.69;100.00
56198;BME280;42700;42.524;12.052;2023-05-14T03:16:07;96686.56;;;15.72;100.00
56198;BME280;42700;42.524;12.052;2023-05-14T03:18:33;96678.53;;;15.72;100.00
56198;BME280;42700;42.524;12.052;2023-05-14T03:21:00;96360.13;;;15.60;100.00
56198;BME280;42700;42.524;12.052;2023-05-14T03:23:27;96563.34;;;15.66;100.00
56198;BME280;42700;42.524;12.052;2023-05-14T03:25:54;96710.66;;;15.72;100.00
56198;BME280;42700;42.524;12.052;2023-05-14T03:28:19;96472.03;;;15.63;100.00
56198;BME280;42700;42.524;12.052;2023-05-14T03:30:45;96437.50;;;15.61;100.00
56198;BME280;42700;42.524;12.052;2023-05-14T03:33:10;96305.50;;;15.56;100.00
56198;BME280;42700;42.524;12.052;2023-05-14T03:35:36;96283.75;;;15.52;100.00
56198;BME280;42700;42.524;12.052;2023-05-14T03:38:02;96467.41;;;15.58;100.00
56198;BME280;42700;42.524;12.052;2023-05-14T03:40:27;96778.00;;;15.68;100.00
56198;BME280;42700;42.524;12.052;2023-05-14T03:42:52;96605.03;;;15.62;100.00
56198;BME280;42700;42.524;12.052;2023-05-14T03:45:18;96686.44;;;15.66;100.00
56198;BME280;42700;42.524;12.052;2023-05-14T03:47:43;96580.34;;;15.60;100.00
56198;BME280;42700;42.524;12.052;2023-05-14T03:50:09;96937.09;;;15.73;100.00
56198;BME280;42700;42.524;12.052;2023-05-14T03:52:34;96686.91;;;15.63;100.00
56198;BME280;42700;42.524;12.052;2023-05-14T03:55:00;96687.97;;;15.62;100.00
56198;BME280;42700;42.524;12.052;2023-05-14T03:57:25;96788.13;;;15.66;100.00
56198;BME280;42700;42.524;12.052;2023-05-14T03:59:51;96979.91;;;15.73;100.00
56198;BME280;42700;42.524;12.052;2023-05-14T04:02:17;96852.94;;;15.68;100.00
56198;BME280;42700;42.524;12.052;2023-05-14T04:04:42;96789.16;;;15.65;100.00
56198;BME280;42700;42.524;12.052;2023-05-14T04:07:08;96600.13;;;15.59;100.00
56198;BME280;42700;42.524;12.052;2023-05-14T04:09:33;96761.84;;;15.63;100.00
56198;BME280;42700;42.524;12.052;2023-05-14T04:11:59;96901.13;;;15.68;100.00
56198;BME280;42700;42.524;12.052;2023-05-14T04:14:25;97120.31;;;15.77;100.00
56198;BME280;42700;42.524;12.052;2023-05-14T04:16:50;97217.88;;;15.81;100.00
56198;BME280;42700;42.524;12.052;2023-05-14T04:19:15;97335.25;;;15.84;100.00
56198;BME280;42700;42.524;12.052;2023-05-14T04:21:41;97258.03;;;15.81;100.00
56198;BME280;42700;42.524;12.052;2023-05-14T04:24:06;97008.06;;;15.75;100.00
56198;BME280;42700;42.524;12.052;2023-05-14T04:26:32;97061.41;;;15.77;100.00
56198;BME280;42700;42.524;12.052;2023-05-14T04:28:57;97026.00;;;15.75;100.00
56198;BME280;42700;42.524;12.052;2023-05-14T04:31:27;97058.13;;;15.75;100.00
56198;BME280;42700;42.524;12.052;2023-05-14T04:33:53;97042.06;;;15.75;100.00
56198;BME280;42700;42.524;12.052;2023-05-14T04:36:19;96848.66;;;15.67;100.00
56198;BME280;42700;42.524;12.052;2023-05-14T04:38:44;96177.97;;;15.44;100.00
56198;BME280;42700;42.524;12.052;2023-05-14T04:41:10;97084.91;;;15.75;100.00
56198;BME280;42700;42.524;12.052;2023-05-14T04:43:35;96972.94;;;15.72;100.00
56198;BME280;42700;42.524;12.052;2023-05-14T04:46:00;97082.22;;;15.75;100.00
56198;BME280;42700;42.524;12.052;2023-05-14T04:48:26;96577.56;;;15.55;100.00
56198;BME280;42700;42.524;12.052;2023-05-14T04:50:51;96539.53;;;15.53;100.00
56198;BME280;42700;42.524;12.052;2023-05-14T04:53:17;97411.59;;;15.86;100.00
56198;BME280;42700;42.524;12.052;2023-05-14T04:55:42;97214.63;;;15.79;100.00
56198;BME280;42700;42.524;12.052;2023-05-14T04:58:08;97435.91;;;15.85;100.00
56198;BME280;42700;42.524;12.052;2023-05-14T05:00:33;97169.34;;;15.77;100.00
56198;BME280;42700;42.524;12.052;2023-05-14T05:02:59;97764.41;;;15.98;100.00
56198;BME280;42700;42.524;12.052;2023-05-14T05:05:24;97924.06;;;16.05;100.00
56198;BME280;42700;42.524;12.052;2023-05-14T05:07:50;97971.25;;;16.07;100.00
56198;BME280;42700;42.524;12.052;2023-05-14T05:10:15;98157.56;;;16.16;100.00
56198;BME280;42700;42.524;12.052;2023-05-14T05:12:41;98116.75;;;16.14;100.00
56198;BME280;42700;42.524;12.052;2023-05-14T05:15:07;97919.31;;;16.08;100.00
56198;BME280;42700;42.524;12.052;2023-05-14T05:17:33;98180.22;;;16.20;100.00
56198;BME280;42700;42.524;12.052;2023-05-14T05:19:59;98655.72;;;16.39;100.00
56198;BME280;42700;42.524;12.052;2023-05-14T05:22:24;98832.34;;;16.49;100.00
56198;BME280;42700;42.524;12.052;2023-05-14T05:24:50;98835.66;;;16.51;100.00
56198;BME280;42700;42.524;12.052;2023-05-14T05:27:15;98427.28;;;16.37;100.00
56198;BME280;42700;42.524;12.052;2023-05-14T05:29:41;98162.94;;;16.29;100.00
56198;BME280;42700;42.524;12.052;2023-05-14T05:32:06;98906.28;;;16.58;100.00
56198;BME280;42700;42.524;12.052;2023-05-14T05:34:32;98715.66;;;16.53;100.00
56198;BME280;42700;42.524;12.052;2023-05-14T05:36:58;98860.53;;;16.59;100.00
56198;BME280;42700;42.524;12.052;2023-05-14T05:39:24;98574.63;;;16.52;100.00
56198;BME280;42700;42.524;12.052;2023-05-14T05:41:49;98431.25;;;16.48;100.00
56198;BME280;42700;42.524;12.052;2023-05-14T05:44:15;98694.47;;;16.58;100.00
56198;BME280;42700;42.524;12.052;2023-05-14T05:46:40;98915.53;;;16.70;100.00
56198;BME280;42700;42.524;12.052;2023-05-14T05:49:06;99349.63;;;16.90;100.00
56198;BME280;42700;42.524;12.052;2023-05-14T05:51:31;99514.91;;;16.99;100.00
56198;BME280;42700;42.524;12.052;2023-05-14T05:53:59;99885.28;;;17.15;100.00
56198;BME280;42700;42.524;12.052;2023-05-14T05:56:25;99582.47;;;17.11;100.00
56198;BME280;42700;42.524;12.052;2023-05-14T05:58:50;100036.00;;;17.29;100.00
56198;BME280;42700;42.524;12.052;2023-05-14T06:01:16;99707.44;;;17.22;100.00
56198;BME280;42700;42.524;12.052;2023-05-14T06:03:41;99838.13;;;17.29;100.00
56198;BME280;42700;42.524;12.052;2023-05-14T06:06:07;98994.00;;;17.02;100.00
56198;BME280;42700;42.524;12.052;2023-05-14T06:08:32;99325.28;;;17.14;100.00
56198;BME280;42700;42.524;12.052;2023-05-14T06:10:58;99721.53;;;17.32;100.00
56198;BME280;42700;42.524;12.052;2023-05-14T06:13:23;100115.97;;;17.51;100.00
56198;BME280;42700;42.524;12.052;2023-05-14T06:15:49;99591.78;;;17.40;100.00
56198;BME280;42700;42.524;12.052;2023-05-14T06:18:17;99830.78;;;17.48;100.00
56198;BME280;42700;42.524;12.052;2023-05-14T06:20:43;100178.81;;;17.67;100.00
56198;BME280;42700;42.524;12.052;2023-05-14T06:23:09;100653.00;;;17.91;100.00
56198;BME280;42700;42.524;12.052;2023-05-14T06:25:36;99969.94;;;17.77;100.00
56198;BME280;42700;42.524;12.052;2023-05-14T06:28:01;100551.94;;;17.98;100.00
56198;BME280;42700;42.524;12.052;2023-05-14T06:30:27;100405.09;;;17.97;100.00
56198;BME280;42700;42.524;12.052;2023-05-14T06:32:53;100320.75;;;17.98;100.00
56198;BME280;42700;42.524;12.052;2023-05-14T06:35:20;100559.44;;;18.12;100.00
56198;BME280;42700;42.524;12.052;2023-05-14T06:37:46;100716.22;;;18.22;100.00
56198;BME280;42700;42.524;12.052;2023-05-14T06:40:12;100953.94;;;18.39;100.00
56198;BME280;42700;42.524;12.052;2023-05-14T06:42:40;100998.97;;;18.47;100.00
56198;BME280;42700;42.524;12.052;2023-05-14T06:45:05;100915.22;;;18.50;100.00
56198;BME280;42700;42.524;12.052;2023-05-14T06:47:31;100828.97;;;18.52;100.00
56198;BME280;42700;42.524;12.052;2023-05-14T06:49:57;100750.78;;;18.53;100.00
56198;BME280;42700;42.524;12.052;2023-05-14T06:52:24;100426.19;;;18.44;100.00
56198;BME280;42700;42.524;12.052;2023-05-14T06:54:50;100525.94;;;18.51;100.00
56198;BME280;42700;42.524;12.052;2023-05-14T06:57:15;100621.69;;;18.61;100.00
56198;BME280;42700;42.524;12.052;2023-05-14T06:59:41;100399.69;;;18.57;100.00
56198;BME280;42700;42.524;12.052;2023-05-14T07:02:06;100366.38;;;18.58;100.00
56198;BME280;42700;42.524;12.052;2023-05-14T07:04:32;100877.22;;;18.81;100.00
56198;BME280;42700;42.524;12.052;2023-05-14T07:06:57;101360.56;;;19.05;100.00
56198;BME280;42700;42.524;12.052;2023-05-14T07:09:23;101518.38;;;19.17;100.00
56198;BME280;42700;42.524;12.052;2023-05-14T07:11:48;101933.16;;;19.40;100.00
56198;BME280;42700;42.524;12.052;2023-05-14T07:14:14;101835.84;;;19.43;100.00
56198;BME280;42700;42.524;12.052;2023-05-14T07:16:40;101885.69;;;19.48;100.00
56198;BME280;42700;42.524;12.052;2023-05-14T07:19:07;101788.78;;;19.47;100.00
56198;BME280;42700;42.524;12.052;2023-05-14T07:21:33;102483.50;;;19.80;100.00
56198;BME280;42700;42.524;12.052;2023-05-14T07:23:59;102935.53;;;20.08;100.00
56198;BME280;42700;42.524;12.052;2023-05-14T07:26:24;101953.28;;;19.78;100.00
56198;BME280;42700;42.524;12.052;2023-05-14T07:28:50;102976.44;;;20.15;100.00
56198;BME280;42700;42.524;12.052;2023-05-14T07:31:15;102130.25;;;19.90;100.00
56198;BME280;42700;42.524;12.052;2023-05-14T07:33:41;101890.44;;;19.87;100.00
56198;BME280;42700;42.524;12.052;2023-05-14T07:36:09;101955.06;;;19.88;100.00
56198;BME280;42700;42.524;12.052;2023-05-14T07:38:35;102808.09;;;20.29;100.00
56198;BME280;42700;42.524;12.052;2023-05-14T07:41:00;102653.72;;;20.35;100.00
56198;BME280;42700;42.524;12.052;2023-05-14T07:43:27;101934.72;;;20.15;100.00
56198;BME280;42700;42.524;12.052;2023-05-14T07:45:52;102324.94;;;20.39;100.00
56198;BME280;42700;42.524;12.052;2023-05-14T07:48:18;102108.13;;;20.38;100.00
56198;BME280;42700;42.524;12.052;2023-05-14T07:50:43;102017.19;;;20.39;100.00
56198;BME280;42700;42.524;12.052;2023-05-14T07:53:09;102906.69;;;20.70;100.00
56198;BME280;42700;42.524;12.052;2023-05-14T07:55:38;102781.00;;;20.77;100.00
56198;BME280;42700;42.524;12.052;2023-05-14T07:58:03;102995.47;;;20.88;100.00
56198;BME280;42700;42.524;12.052;2023-05-14T08:00:29;102853.22;;;20.87;100.00
56198;BME280;42700;42.524;12.052;2023-05-14T08:02:55;102443.44;;;20.76;100.00
56198;BME280;42700;42.524;12.052;2023-05-14T08:05:20;102206.41;;;20.68;100.00
56198;BME280;42700;42.524;12.052;2023-05-14T08:07:46;101163.44;;;20.20;100.00
56198;BME280;42700;42.524;12.052;2023-05-14T08:10:11;100653.63;;;19.94;100.00
56198;BME280;42700;42.524;12.052;2023-05-14T08:12:36;101711.19;;;20.30;100.00
56198;BME280;42700;42.524;12.052;2023-05-14T08:15:03;99831.75;;;19.60;100.00
56198;BME280;42700;42.524;12.052;2023-05-14T08:17:28;101072.81;;;20.09;100.00
56198;BME280;42700;42.524;12.052;2023-05-14T08:19:54;98332.84;;;19.15;100.00
56198;BME280;42700;42.524;12.052;2023-05-14T08:22:19;96709.34;;;18.54;100.00
56198;BME280;42700;42.524;12.052;2023-05-14T08:24:45;94773.66;;;17.82;100.00
56198;BME280;42700;42.524;12.052;2023-05-14T08:27:11;95598.19;;;18.05;100.00
56198;BME280;42700;42.524;12.052;2023-05-14T08:29:36;96322.91;;;18.29;100.00
56198;BME280;42700;42.524;12.052;2023-05-14T08:32:02;95466.09;;;18.03;100.00
56198;BME280;42700;42.524;12.052;2023-05-14T08:34:27;96832.94;;;18.49;100.00
56198;BME280;42700;42.524;12.052;2023-05-14T08:36:53;98270.47;;;18.93;100.00
56198;BME280;42700;42.524;12.052;2023-05-14T08:39:19;97678.44;;;18.81;100.00
56198;BME280;42700;42.524;12.052;2023-05-14T08:41:45;97058.59;;;18.55;100.00
56198;BME280;42700;42.524;12.052;2023-05-14T08:44:17;98444.72;;;18.98;100.00
56198;BME280;42700;42.524;12.052;2023-05-14T08:46:42;100137.75;;;19.62;100.00
56198;BME280;42700;42.524;12.052;2023-05-14T08:49:20;101670.84;;;20.19;100.00
56198;BME280;42700;42.524;12.052;2023-05-14T08:51:49;101543.88;;;20.20;100.00
56198;BME280;42700;42.524;12.052;2023-05-14T08:54:15;100243.84;;;19.78;100.00
56198;BME280;42700;42.524;12.052;2023-05-14T08:56:43;97744.72;;;18.94;100.00
56198;BME280;42700;42.524;12.052;2023-05-14T08:59:10;99507.47;;;19.52;100.00
56198;BME280;42700;42.524;12.052;2023-05-14T09:01:36;100999.59;;;20.04;100.00
56198;BME280;42700;42.524;12.052;2023-05-14T09:04:03;99438.16;;;19.61;100.00
56198;BME280;42700;42.524;12.052;2023-05-14T09:06:35;101008.75;;;20.12;100.00
56198;BME280;42700;42.524;12.052;2023-05-14T09:09:04;98227.22;;;19.20;100.00
56198;BME280;42700;42.524;12.052;2023-05-14T09:11:30;100677.94;;;20.02;100.00
56198;BME280;42700;42.524;12.052;2023-05-14T09:13:55;103027.66;;;20.91;100.00
56198;BME280;42700;42.524;12.052;2023-05-14T09:16:21;103888.06;;;21.33;100.00
56198;BME280;42700;42.524;12.052;2023-05-14T09:18:47;101839.94;;;20.78;100.00
56198;BME280;42700;42.524;12.052;2023-05-14T09:21:13;103063.19;;;21.22;100.00
56198;BME280;42700;42.524;12.052;2023-05-14T09:23:42;103640.53;;;21.54;100.00
56198;BME280;42700;42.524;12.052;2023-05-14T09:26:09;103123.63;;;21.45;100.00
56198;BME280;42700;42.524;12.052;2023-05-14T09:28:34;102679.59;;;21.39;100.00
56198;BME280;42700;42.524;12.052;2023-05-14T09:31:00;101557.03;;;21.08;100.00
56198;BME280;42700;42.524;12.052;2023-05-14T09:33:26;100922.41;;;20.89;100.00
56198;BME280;42700;42.524;12.052;2023-05-14T09:35:59;100796.16;;;20.82;100.00
56198;BME280;42700;42.524;12.052;2023-05-14T09:38:28;101140.47;;;20.87;100.00
56198;BME280;42700;42.524;12.052;2023-05-14T09:40:54;101372.00;;;20.94;100.00
56198;BME280;42700;42.524;12.052;2023-05-14T09:43:20;101699.84;;;21.03;100.00
56198;BME280;42700;42.524;12.052;2023-05-14T09:45:46;100457.28;;;20.62;100.00
56198;BME280;42700;42.524;12.052;2023-05-14T09:48:11;101467.59;;;20.83;100.00
56198;BME280;42700;42.524;12.052;2023-05-14T09:50:44;101146.50;;;20.72;100.00
56198;BME280;42700;42.524;12.052;2023-05-14T09:53:10;101935.78;;;20.94;100.00
56198;BME280;42700;42.524;12.052;2023-05-14T09:55:36;101799.28;;;20.90;100.00
56198;BME280;42700;42.524;12.052;2023-05-14T09:58:01;101226.63;;;20.72;100.00
56198;BME280;42700;42.524;12.052;2023-05-14T10:00:28;99322.03;;;20.13;100.00
56198;BME280;42700;42.524;12.052;2023-05-14T10:02:53;100601.06;;;20.48;100.00
56198;BME280;42700;42.524;12.052;2023-05-14T10:05:20;100886.00;;;20.58;100.00
56198;BME280;42700;42.524;12.052;2023-05-14T10:07:49;100658.75;;;20.55;100.00
56198;BME280;42700;42.524;12.052;2023-05-14T10:10:19;101811.50;;;20.94;100.00
56198;BME280;42700;42.524;12.052;2023-05-14T10:12:48;101962.50;;;21.07;100.00
56198;BME280;42700;42.524;12.052;2023-05-14T10:15:16;102367.69;;;21.19;100.00
56198;BME280;42700;42.524;12.052;2023-05-14T10:17:46;102578.38;;;21.32;100.00
56198;BME280;42700;42.524;12.052;2023-05-14T10:20:13;103061.31;;;21.46;100.00
56198;BME280;42700;42.524;12.052;2023-05-14T10:22:40;101974.19;;;21.07;100.00
56198;BME280;42700;42.524;12.052;2023-05-14T10:25:06;102732.59;;;21.31;100.00
56198;BME280;42700;42.524;12.052;2023-05-14T10:27:32;103231.81;;;21.45;100.00
56198;BME280;42700;42.524;12.052;2023-05-14T10:29:58;103566.22;;;21.60;100.00
56198;BME280;42700;42.524;12.052;2023-05-14T10:32:24;103169.19;;;21.51;100.00
56198;BME280;42700;42.524;12.052;2023-05-14T10:34:53;103433.06;;;21.68;100.00
56198;BME280;42700;42.524;12.052;2023-05-14T10:37:22;103743.66;;;21.77;100.00
56198;BME280;42700;42.524;12.052;2023-05-14T10:39:50;103459.47;;;21.77;100.00
56198;BME280;42700;42.524;12.052;2023-05-14T10:42:17;102847.91;;;21.54;100.00
56198;BME280;42700;42.524;12.052;2023-05-14T10:44:47;103727.97;;;21.82;100.00
56198;BME280;42700;42.524;12.052;2023-05-14T10:47:13;105918.88;;;22.67;100.00
56198;BME280;42700;42.524;12.052;2023-05-14T10:49:41;104832.94;;;22.43;100.00
56198;BME280;42700;42.524;12.052;2023-05-14T10:52:07;106665.50;;;23.04;100.00
56198;BME280;42700;42.524;12.052;2023-05-14T10:54:36;105149.81;;;22.47;100.00
56198;BME280;42700;42.524;12.052;2023-05-14T10:57:02;107370.84;;;23.24;100.00
56198;BME280;42700;42.524;12.052;2023-05-14T10:59:28;107115.75;;;23.18;100.00
56198;BME280;42700;42.524;12.052;2023-05-14T11:01:57;105519.09;;;22.73;100.00
56198;BME280;42700;42.524;12.052;2023-05-14T11:04:22;103965.22;;;22.10;100.00
56198;BME280;42700;42.524;12.052;2023-05-14T11:06:49;108263.16;;;23.53;100.00
56198;BME280;42700;42.524;12.052;2023-05-14T11:09:16;108440.66;;;23.67;100.00
56198;BME280;42700;42.524;12.052;2023-05-14T11:11:44;109421.50;;;24.14;100.00
56198;BME280;42700;42.524;12.052;2023-05-14T11:14:09;108850.25;;;24.02;100.00
56198;BME280;42700;42.524;12.052;2023-05-14T11:16:35;109449.88;;;24.38;100.00
56198;BME280;42700;42.524;12.052;2023-05-14T11:19:02;107982.81;;;24.08;100.00
56198;BME280;42700;42.524;12.052;2023-05-14T11:21:29;105455.75;;;23.34;100.00
56198;BME280;42700;42.524;12.052;2023-05-14T11:23:55;107969.25;;;24.05;100.00
56198;BME280;42700;42.524;12.052;2023-05-14T11:26:22;106990.88;;;23.93;100.00
56198;BME280;42700;42.524;12.052;2023-05-14T11:28:48;106614.25;;;23.86;100.00
56198;BME280;42700;42.524;12.052;2023-05-14T11:31:13;106105.81;;;23.71;100.00
56198;BME280;42700;42.524;12.052;2023-05-14T11:33:39;105216.44;;;23.44;100.00
56198;BME280;42700;42.524;12.052;2023-05-14T11:36:05;104011.75;;;22.99;100.00
56198;BME280;42700;42.524;12.052;2023-05-14T11:38:30;104353.75;;;22.94;100.00
56198;BME280;42700;42.524;12.052;2023-05-14T11:40:56;102854.22;;;22.33;100.00
56198;BME280;42700;42.524;12.052;2023-05-14T11:43:22;104261.75;;;22.77;100.00
56198;BME280;42700;42.524;12.052;2023-05-14T11:45:49;103559.34;;;22.44;100.00
56198;BME280;42700;42.524;12.052;2023-05-14T11:48:15;104511.34;;;22.74;100.00
56198;BME280;42700;42.524;12.052;2023-05-14T11:50:49;105451.00;;;23.00;100.00
56198;BME280;42700;42.524;12.052;2023-05-14T11:53:18;103075.25;;;22.22;100.00
56198;BME280;42700;42.524;12.052;2023-05-14T11:55:45;108226.75;;;23.91;100.00
56198;BME280;42700;42.524;12.052;2023-05-14T11:58:11;105981.19;;;23.18;100.00
56198;BME280;42700;42.524;12.052;2023-05-14T12:00:38;102432.19;;;22.07;100.00
56198;BME280;42700;42.524;12.052;2023-05-14T12:03:04;104474.22;;;22.60;100.00
56198;BME280;42700;42.524;12.052;2023-05-14T12:05:30;106553.84;;;23.48;100.00
56198;BME280;42700;42.524;12.052;2023-05-14T12:07:55;106444.09;;;23.55;100.00
56198;BME280;42700;42.524;12.052;2023-05-14T12:10:21;108242.88;;;24.16;100.00
56198;BME280;42700;42.524;12.052;2023-05-14T12:12:47;110338.47;;;24.98;100.00
56198;BME280;42700;42.524;12.052;2023-05-14T12:15:13;108742.41;;;24.57;100.00
56198;BME280;42700;42.524;12.052;2023-05-14T12:17:39;107959.78;;;24.37;100.00
56198;BME280;42700;42.524;12.052;2023-05-14T12:20:08;107808.41;;;24.35;100.00
56198;BME280;42700;42.524;12.052;2023-05-14T12:22:37;106347.22;;;23.82;100.00
56198;BME280;42700;42.524;12.052;2023-05-14T12:25:03;108763.22;;;24.65;100.00
56198;BME280;42700;42.524;12.052;2023-05-14T12:27:29;107196.78;;;24.21;100.00
56198;BME280;42700;42.524;12.052;2023-05-14T12:30:02;109216.97;;;24.77;100.00
56198;BME280;42700;42.524;12.052;2023-05-14T12:32:34;110210.66;;;25.09;100.00
56198;BME280;42700;42.524;12.052;2023-05-14T12:35:00;110806.97;;;25.26;100.00
56198;BME280;42700;42.524;12.052;2023-05-14T12:37:26;110114.16;;;24.98;100.00